createdAt,value
2023-05-11T00:04:42.743Z,8.70
2023-05-11T00:09:51.032Z,8.70
2023-05-11T00:15:00.065Z,8.70
2023-05-11T00:20:08.877Z,8.70
2023-05-11T00:25:17.899Z,8.70
2023-05-11T00:30:26.273Z,8.80
2023-05-11T00:35:35.109Z,8.80
2023-05-11T00:40:43.894Z,8.80
2023-05-11T00:45:52.638Z,8.80
2023-05-11T00:51:01.192Z,8.70
2023-05-11T00:56:10.126Z,8.70
2023-05-11T01:01:18.986Z,8.70
2023-05-11T01:06:27.700Z,8.60
2023-05-11T01:11:36.389Z,8.60
2023-05-11T01:16:45.442Z,8.60
2023-05-11T01:21:53.999Z,8.60
2023-05-11T01:27:03.167Z,8.60
2023-05-11T01:32:11.725Z,8.50
2023-05-11T01:37:20.925Z,8.50
2023-05-11T01:42:29.438Z,8.50
2023-05-11T01:47:38.669Z,8.50
2023-05-11T01:52:47.097Z,8.50
2023-05-11T01:57:55.840Z,8.40
2023-05-11T02:03:04.470Z,8.40
2023-05-11T02:08:13.407Z,8.40
2023-05-11T02:13:21.954Z,8.40
2023-05-11T02:18:30.860Z,8.30
2023-05-11T02:23:39.312Z,8.40
2023-05-11T02:28:47.903Z,8.30
2023-05-11T02:33:56.115Z,8.40
2023-05-11T02:39:05.694Z,8.40
2023-05-11T02:44:14.281Z,8.40
2023-05-11T02:49:23.460Z,8.30
2023-05-11T02:54:32.062Z,8.30
2023-05-11T02:59:40.797Z,8.40
2023-05-11T03:04:49.522Z,8.40
2023-05-11T03:09:58.713Z,8.40
2023-05-11T03:15:07.607Z,8.50
2023-05-11T03:20:16.355Z,8.50
2023-05-11T03:25:25.287Z,8.60
2023-05-11T03:30:34.443Z,8.80
2023-05-11T03:35:43.123Z,9.00
2023-05-11T03:40:52.216Z,9.10
2023-05-11T03:46:00.824Z,9.20
2023-05-11T03:51:09.974Z,9.30
2023-05-11T03:56:18.838Z,9.50
2023-05-11T04:01:27.795Z,9.60
2023-05-11T04:06:36.169Z,9.90
2023-05-11T04:11:45.313Z,10.20
2023-05-11T04:16:54.252Z,10.50
2023-05-11T04:22:03.269Z,11.00
2023-05-11T04:27:11.685Z,11.40
2023-05-11T04:32:20.496Z,11.60
2023-05-11T04:37:29.494Z,11.80
2023-05-11T04:42:38.697Z,12.00
2023-05-11T04:47:47.286Z,12.40
2023-05-11T04:52:56.286Z,12.80
2023-05-11T04:58:05.059Z,13.20
2023-05-11T05:03:14.316Z,13.40
2023-05-11T05:08:23.318Z,13.40
2023-05-11T05:13:32.882Z,13.60
2023-05-11T05:18:41.469Z,13.80
2023-05-11T05:23:50.839Z,14.20
2023-05-11T05:29:00.032Z,14.60
2023-05-11T05:34:09.403Z,14.90
2023-05-11T05:39:18.515Z,15.30
2023-05-11T05:44:27.846Z,15.60
2023-05-11T05:49:36.447Z,15.90
2023-05-11T05:54:45.786Z,16.00
2023-05-11T05:59:54.233Z,16.30
2023-05-11T06:05:03.648Z,16.60
2023-05-11T06:10:12.505Z,16.70
2023-05-11T06:15:21.915Z,16.90
2023-05-11T06:20:31.134Z,17.00
2023-05-11T06:25:40.354Z,17.30
2023-05-11T06:30:49.965Z,17.60
2023-05-11T06:35:58.628Z,17.60
2023-05-11T06:41:07.290Z,17.70
2023-05-11T06:46:17.073Z,17.60
2023-05-11T06:51:25.570Z,17.80
2023-05-11T06:56:34.726Z,18.10
2023-05-11T07:01:43.348Z,18.30
2023-05-11T07:06:52.785Z,18.30
2023-05-11T07:12:01.564Z,18.20
2023-05-11T07:17:10.836Z,18.40
2023-05-11T07:22:19.592Z,18.80
2023-05-11T07:27:29.083Z,19.10
2023-05-11T07:32:38.080Z,19.30
2023-05-11T07:37:47.021Z,19.50
2023-05-11T07:42:55.725Z,19.90
2023-05-11T07:48:04.642Z,20.10
2023-05-11T07:58:22.041Z,20.00
2023-05-11T08:03:30.917Z,20.20
2023-05-11T08:18:58.454Z,20.10
2023-05-11T08:24:06.808Z,20.80
2023-05-11T08:29:15.670Z,21.00
2023-05-11T08:34:24.514Z,21.00
2023-05-11T08:39:46.622Z,21.50
2023-05-11T08:44:42.312Z,21.90
2023-05-11T08:49:51.340Z,22.10
2023-05-11T08:54:59.964Z,21.90
2023-05-11T09:00:09.431Z,21.50
2023-05-11T09:05:18.186Z,21.10
2023-05-11T09:10:26.395Z,20.90
2023-05-11T09:15:38.049Z,20.50
2023-05-11T09:20:44.884Z,20.30
2023-05-11T09:25:53.808Z,20.60
2023-05-11T09:31:02.693Z,21.40
2023-05-11T09:36:11.465Z,21.90
2023-05-11T09:41:20.410Z,22.10
2023-05-11T09:46:29.198Z,22.30
2023-05-11T09:51:38.311Z,22.50
2023-05-11T09:56:47.048Z,22.30
2023-05-11T10:01:56.211Z,22.00
2023-05-11T10:07:04.704Z,22.10
2023-05-11T10:12:14.078Z,22.10
2023-05-11T10:17:22.675Z,22.30
2023-05-11T10:22:31.657Z,22.50
2023-05-11T10:27:40.590Z,22.50
2023-05-11T10:32:50.209Z,22.60
2023-05-11T10:37:59.117Z,22.70
2023-05-11T10:43:07.673Z,22.40
2023-05-11T10:48:16.450Z,23.00
2023-05-11T10:53:25.712Z,23.40
2023-05-11T10:58:34.269Z,23.70
2023-05-11T11:03:43.737Z,23.50
2023-05-11T11:08:52.522Z,23.00
2023-05-11T11:14:01.551Z,22.50
2023-05-11T11:19:10.676Z,22.50
2023-05-11T11:24:20.334Z,22.80
2023-05-11T11:29:29.229Z,22.80
2023-05-11T11:34:38.233Z,22.70
2023-05-11T11:39:47.084Z,23.10
2023-05-11T11:44:56.136Z,23.00
2023-05-11T11:50:04.987Z,22.80
2023-05-11T11:55:13.891Z,23.00
2023-05-11T12:00:23.029Z,22.90
2023-05-11T12:05:33.138Z,22.40
2023-05-11T12:10:31.756Z,22.20
2023-05-11T12:15:40.689Z,22.50
2023-05-11T12:20:49.825Z,23.20
2023-05-11T12:25:58.769Z,23.60
2023-05-11T12:31:07.517Z,23.20
2023-05-11T12:36:17.333Z,22.70
2023-05-11T12:41:25.982Z,22.20
2023-05-11T12:46:35.666Z,21.60
2023-05-11T12:51:44.091Z,21.20
2023-05-11T12:56:52.593Z,20.70
2023-05-11T13:02:01.724Z,19.90
2023-05-11T13:17:29.104Z,19.00
2023-05-11T13:22:37.678Z,19.60
2023-05-11T13:27:47.498Z,20.20
2023-05-11T13:32:56.473Z,20.50
2023-05-11T13:43:14.633Z,20.60
2023-05-11T13:48:23.862Z,20.80
2023-05-11T13:53:32.744Z,21.10
2023-05-11T13:58:41.604Z,21.30
2023-05-11T14:03:50.408Z,21.10
2023-05-11T14:08:59.283Z,21.10
2023-05-11T14:14:07.752Z,21.30
2023-05-11T14:19:17.206Z,21.70
2023-05-11T14:24:25.711Z,21.70
2023-05-11T14:29:34.564Z,21.40
2023-05-11T14:34:42.986Z,21.20
2023-05-11T14:39:52.313Z,21.30
2023-05-11T14:45:00.872Z,21.40
2023-05-11T14:50:09.989Z,21.20
2023-05-11T14:55:19.217Z,21.20
2023-05-11T15:00:27.430Z,21.40
2023-05-11T15:05:36.403Z,21.70
2023-05-11T15:10:45.289Z,22.10
2023-05-11T15:15:54.147Z,22.90
2023-05-11T15:21:03.078Z,24.50
2023-05-11T15:26:11.582Z,26.00
2023-05-11T15:31:20.629Z,27.40
2023-05-11T15:36:29.896Z,28.30
2023-05-11T15:41:38.308Z,28.70
2023-05-11T15:46:50.593Z,28.50
2023-05-11T15:51:49.596Z,28.30
2023-05-11T15:56:58.317Z,28.20
2023-05-11T16:02:07.810Z,27.50
2023-05-11T16:07:16.749Z,27.20
2023-05-11T16:12:25.385Z,27.10
2023-05-11T16:17:34.343Z,27.50
2023-05-11T16:22:43.189Z,28.00
2023-05-11T16:27:51.586Z,28.10
2023-05-11T16:33:00.512Z,27.80
2023-05-11T16:38:09.165Z,27.10
2023-05-11T16:43:17.471Z,26.40
2023-05-11T16:48:26.106Z,25.70
2023-05-11T16:53:34.913Z,25.40
2023-05-11T16:58:44.263Z,25.60
2023-05-11T17:03:54.330Z,24.80
2023-05-11T17:08:53.203Z,23.80
2023-05-11T17:14:02.266Z,23.50
2023-05-11T17:19:11.081Z,23.10
2023-05-11T17:24:20.145Z,22.70
2023-05-11T17:29:28.556Z,22.30
2023-05-11T17:34:38.024Z,21.40
2023-05-11T17:39:47.898Z,20.30
2023-05-11T17:44:55.342Z,19.30
2023-05-11T17:50:04.048Z,18.70
2023-05-11T18:00:22.505Z,17.80
2023-05-11T18:05:44.884Z,17.00
2023-05-11T18:10:40.725Z,16.50
2023-05-11T18:15:49.894Z,16.10
2023-05-11T18:20:58.774Z,15.80
2023-05-11T18:26:07.706Z,15.60
2023-05-11T18:31:16.301Z,15.50
2023-05-11T18:36:24.987Z,15.30
2023-05-11T18:41:33.907Z,14.80
2023-05-11T18:46:42.786Z,14.60
2023-05-11T18:51:51.521Z,14.20
2023-05-11T18:57:00.600Z,14.10
2023-05-11T19:02:10.326Z,13.90
2023-05-11T19:07:20.396Z,13.80
2023-05-11T19:12:28.322Z,13.60
2023-05-11T19:17:38.624Z,13.40
2023-05-11T19:22:37.430Z,13.20
2023-05-11T19:27:46.790Z,13.10
2023-05-11T19:32:55.882Z,12.90
2023-05-11T19:38:04.944Z,12.80
2023-05-11T19:43:13.537Z,12.70
2023-05-11T19:48:22.685Z,12.50
2023-05-11T19:53:31.118Z,12.30
2023-05-11T19:58:39.857Z,12.00
2023-05-11T20:03:48.730Z,11.80
2023-05-11T20:08:57.410Z,11.60
2023-05-11T20:14:06.166Z,11.50
2023-05-11T20:19:16.471Z,11.40
2023-05-11T20:24:14.756Z,11.40
2023-05-11T20:29:23.850Z,11.40
2023-05-11T20:34:32.838Z,11.30
2023-05-11T20:39:42.150Z,11.10
2023-05-11T20:44:51.013Z,11.00
2023-05-11T20:50:03.095Z,10.80
2023-05-11T20:55:01.789Z,10.80
2023-05-11T21:00:10.780Z,10.70
2023-05-11T21:05:19.640Z,10.70
2023-05-11T21:10:28.841Z,10.50
2023-05-11T21:15:37.199Z,10.30
2023-05-11T21:20:46.164Z,10.20
2023-05-11T21:25:54.840Z,10.10
2023-05-11T21:31:03.908Z,10.20
2023-05-11T21:36:12.955Z,10.10
2023-05-11T21:41:22.069Z,10.00
2023-05-11T21:46:30.689Z,9.80
2023-05-11T21:51:39.494Z,9.70
2023-05-11T21:56:48.046Z,9.60
2023-05-11T22:01:57.113Z,9.60
2023-05-11T22:07:05.809Z,9.50
2023-05-11T22:12:14.620Z,9.40
2023-05-11T22:17:23.784Z,9.40
2023-05-11T22:22:33.034Z,9.20
2023-05-11T22:27:41.919Z,9.20
2023-05-11T22:32:50.986Z,9.10
2023-05-11T22:37:59.317Z,9.00
2023-05-11T22:43:07.898Z,8.90
2023-05-11T22:48:16.692Z,8.80
2023-05-11T22:53:26.115Z,8.80
2023-05-11T22:58:34.597Z,8.70
2023-05-11T23:03:43.673Z,8.60
2023-05-11T23:08:52.525Z,8.50
2023-05-11T23:14:01.680Z,8.50
2023-05-11T23:19:10.374Z,8.40
2023-05-11T23:24:19.501Z,8.30
2023-05-11T23:29:28.409Z,8.20
2023-05-11T23:34:37.725Z,8.10
2023-05-11T23:39:47.025Z,8.10
2023-05-11T23:44:56.173Z,8.10
2023-05-11T23:50:04.682Z,8.10
2023-05-11T23:55:13.837Z,8.00
